sensor_id;sensor_type;location;lat;lon;timestamp;P1;durP1;ratioP1;P2;durP2;ratioP2
10882;SDS011;5494;51.796;10.952;2024-02-21T00:02:24;8.43;;;4.10;;
10882;SDS011;5494;51.796;10.952;2024-02-21T00:04:52;13.40;;;5.40;;
10882;SDS011;5494;51.796;10.952;2024-02-21T00:07:20;13.17;;;5.17;;
10882;SDS011;5494;51.796;10.952;2024-02-21T00:09:49;12.30;;;5.00;;
10882;SDS011;5494;51.796;10.952;2024-02-21T00:12:17;14.80;;;4.80;;
10882;SDS011;5494;51.796;10.952;2024-02-21T00:14:45;12.87;;;4.50;;
10882;SDS011;5494;51.796;10.952;2024-02-21T00:17:14;15.13;;;5.67;;
10882;SDS011;5494;51.796;10.952;2024-02-21T00:19:42;11.23;;;5.27;;
10882;SDS011;5494;51.796;10.952;2024-02-21T00:22:10;15.87;;;5.57;;
10882;SDS011;5494;51.796;10.952;2024-02-21T00:24:38;11.03;;;5.43;;
10882;SDS011;5494;51.796;10.952;2024-02-21T00:27:06;14.37;;;5.00;;
10882;SDS011;5494;51.796;10.952;2024-02-21T00:29:34;12.73;;;5.00;;
10882;SDS011;5494;51.796;10.952;2024-02-21T00:32:02;10.27;;;4.70;;
10882;SDS011;5494;51.796;10.952;2024-02-21T00:34:32;10.70;;;5.30;;
10882;SDS011;5494;51.796;10.952;2024-02-21T00:37:04;13.30;;;4.87;;
10882;SDS011;5494;51.796;10.952;2024-02-21T00:39:32;13.77;;;5.87;;
10882;SDS011;5494;51.796;10.952;2024-02-21T00:42:00;10.33;;;5.40;;
10882;SDS011;5494;51.796;10.952;2024-02-21T00:44:28;12.90;;;4.20;;
10882;SDS011;5494;51.796;10.952;2024-02-21T00:46:56;8.87;;;4.53;;
10882;SDS011;5494;51.796;10.952;2024-02-21T00:49:24;12.37;;;4.73;;
10882;SDS011;5494;51.796;10.952;2024-02-21T00:51:54;12.23;;;4.80;;
10882;SDS011;5494;51.796;10.952;2024-02-21T00:54:21;9.07;;;4.67;;
10882;SDS011;5494;51.796;10.952;2024-02-21T00:56:49;12.17;;;4.23;;
10882;SDS011;5494;51.796;10.952;2024-02-21T00:59:17;10.33;;;4.77;;
10882;SDS011;5494;51.796;10.952;2024-02-21T01:01:45;9.83;;;4.80;;
10882;SDS011;5494;51.796;10.952;2024-02-21T01:04:14;9.40;;;5.33;;
10882;SDS011;5494;51.796;10.952;2024-02-21T01:06:42;14.77;;;5.10;;
10882;SDS011;5494;51.796;10.952;2024-02-21T01:09:11;10.23;;;4.90;;
10882;SDS011;5494;51.796;10.952;2024-02-21T01:11:42;10.37;;;4.97;;
10882;SDS011;5494;51.796;10.952;2024-02-21T01:14:10;8.87;;;4.83;;
10882;SDS011;5494;51.796;10.952;2024-02-21T01:16:38;9.73;;;4.60;;
10882;SDS011;5494;51.796;10.952;2024-02-21T01:19:06;11.00;;;4.67;;
10882;SDS011;5494;51.796;10.952;2024-02-21T01:21:34;9.90;;;4.93;;
10882;SDS011;5494;51.796;10.952;2024-02-21T01:24:02;10.00;;;4.90;;
10882;SDS011;5494;51.796;10.952;2024-02-21T01:26:32;11.80;;;5.00;;
10882;SDS011;5494;51.796;10.952;2024-02-21T01:29:00;10.37;;;4.17;;
10882;SDS011;5494;51.796;10.952;2024-02-21T01:31:31;10.83;;;4.70;;
10882;SDS011;5494;51.796;10.952;2024-02-21T01:33:59;11.80;;;4.97;;
10882;SDS011;5494;51.796;10.952;2024-02-21T01:36:27;11.93;;;4.70;;
10882;SDS011;5494;51.796;10.952;2024-02-21T01:38:55;9.93;;;4.00;;
10882;SDS011;5494;51.796;10.952;2024-02-21T01:41:23;9.70;;;3.83;;
10882;SDS011;5494;51.796;10.952;2024-02-21T01:43:52;9.77;;;4.13;;
10882;SDS011;5494;51.796;10.952;2024-02-21T01:46:20;11.87;;;4.43;;
10882;SDS011;5494;51.796;10.952;2024-02-21T01:48:48;8.07;;;4.50;;
10882;SDS011;5494;51.796;10.952;2024-02-21T01:51:16;10.70;;;4.60;;
10882;SDS011;5494;51.796;10.952;2024-02-21T01:53:44;9.33;;;4.57;;
10882;SDS011;5494;51.796;10.952;2024-02-21T01:56:13;14.60;;;5.23;;
10882;SDS011;5494;51.796;10.952;2024-02-21T01:58:42;11.13;;;5.00;;
10882;SDS011;5494;51.796;10.952;2024-02-21T02:01:12;12.80;;;4.83;;
10882;SDS011;5494;51.796;10.952;2024-02-21T02:03:45;10.47;;;4.47;;
10882;SDS011;5494;51.796;10.952;2024-02-21T02:06:13;7.93;;;4.73;;
10882;SDS011;5494;51.796;10.952;2024-02-21T02:08:42;10.03;;;5.00;;
10882;SDS011;5494;51.796;10.952;2024-02-21T02:11:10;10.60;;;5.97;;
10882;SDS011;5494;51.796;10.952;2024-02-21T02:13:41;12.53;;;5.60;;
10882;SDS011;5494;51.796;10.952;2024-02-21T02:16:09;8.13;;;4.87;;
10882;SDS011;5494;51.796;10.952;2024-02-21T02:18:38;10.37;;;5.43;;
10882;SDS011;5494;51.796;10.952;2024-02-21T02:21:10;11.97;;;5.93;;
10882;SDS011;5494;51.796;10.952;2024-02-21T02:23:51;12.87;;;6.07;;
10882;SDS011;5494;51.796;10.952;2024-02-21T02:26:19;12.87;;;5.90;;
10882;SDS011;5494;51.796;10.952;2024-02-21T02:28:47;12.07;;;5.93;;
10882;SDS011;5494;51.796;10.952;2024-02-21T02:31:15;13.70;;;6.87;;
10882;SDS011;5494;51.796;10.952;2024-02-21T02:33:44;12.27;;;5.20;;
10882;SDS011;5494;51.796;10.952;2024-02-21T02:36:12;14.20;;;6.03;;
10882;SDS011;5494;51.796;10.952;2024-02-21T02:38:40;9.07;;;5.43;;
10882;SDS011;5494;51.796;10.952;2024-02-21T02:41:09;9.73;;;6.00;;
10882;SDS011;5494;51.796;10.952;2024-02-21T02:43:37;11.73;;;5.83;;
10882;SDS011;5494;51.796;10.952;2024-02-21T02:46:05;12.97;;;6.60;;
10882;SDS011;5494;51.796;10.952;2024-02-21T02:48:33;8.53;;;5.37;;
10882;SDS011;5494;51.796;10.952;2024-02-21T02:51:01;14.27;;;6.50;;
10882;SDS011;5494;51.796;10.952;2024-02-21T02:53:29;13.03;;;6.00;;
10882;SDS011;5494;51.796;10.952;2024-02-21T02:55:57;15.10;;;6.53;;
10882;SDS011;5494;51.796;10.952;2024-02-21T02:58:27;11.80;;;6.20;;
10882;SDS011;5494;51.796;10.952;2024-02-21T03:00:55;11.83;;;6.13;;
10882;SDS011;5494;51.796;10.952;2024-02-21T03:03:24;13.00;;;5.83;;
10882;SDS011;5494;51.796;10.952;2024-02-21T03:05:52;10.97;;;6.07;;
10882;SDS011;5494;51.796;10.952;2024-02-21T03:08:20;11.17;;;5.67;;
10882;SDS011;5494;51.796;10.952;2024-02-21T03:10:49;11.03;;;5.97;;
10882;SDS011;5494;51.796;10.952;2024-02-21T03:13:17;8.10;;;5.10;;
10882;SDS011;5494;51.796;10.952;2024-02-21T03:15:47;9.97;;;5.43;;
10882;SDS011;5494;51.796;10.952;2024-02-21T03:18:14;8.27;;;5.00;;
10882;SDS011;5494;51.796;10.952;2024-02-21T03:20:43;9.57;;;5.60;;
10882;SDS011;5494;51.796;10.952;2024-02-21T03:23:11;10.50;;;5.73;;
10882;SDS011;5494;51.796;10.952;2024-02-21T03:25:38;10.17;;;5.87;;
10882;SDS011;5494;51.796;10.952;2024-02-21T03:28:06;13.87;;;6.47;;
10882;SDS011;5494;51.796;10.952;2024-02-21T03:30:35;11.37;;;6.53;;
10882;SDS011;5494;51.796;10.952;2024-02-21T03:33:04;11.20;;;6.53;;
10882;SDS011;5494;51.796;10.952;2024-02-21T03:35:32;12.97;;;6.30;;
10882;SDS011;5494;51.796;10.952;2024-02-21T03:38:00;11.67;;;7.07;;
10882;SDS011;5494;51.796;10.952;2024-02-21T03:40:28;12.27;;;6.90;;
10882;SDS011;5494;51.796;10.952;2024-02-21T03:42:56;14.80;;;7.67;;
10882;SDS011;5494;51.796;10.952;2024-02-21T03:45:24;17.50;;;7.80;;
10882;SDS011;5494;51.796;10.952;2024-02-21T03:47:52;11.23;;;7.47;;
10882;SDS011;5494;51.796;10.952;2024-02-21T03:50:22;13.27;;;7.80;;
10882;SDS011;5494;51.796;10.952;2024-02-21T03:52:52;14.13;;;7.50;;
10882;SDS011;5494;51.796;10.952;2024-02-21T03:55:20;17.80;;;8.80;;
10882;SDS011;5494;51.796;10.952;2024-02-21T03:57:48;13.60;;;9.00;;
10882;SDS011;5494;51.796;10.952;2024-02-21T04:00:28;15.60;;;8.77;;
10882;SDS011;5494;51.796;10.952;2024-02-21T04:02:56;15.10;;;8.67;;
10882;SDS011;5494;51.796;10.952;2024-02-21T04:05:25;16.63;;;8.80;;
10882;SDS011;5494;51.796;10.952;2024-02-21T04:07:53;17.17;;;8.83;;
10882;SDS011;5494;51.796;10.952;2024-02-21T04:10:21;16.60;;;8.77;;
10882;SDS011;5494;51.796;10.952;2024-02-21T04:12:49;15.97;;;8.47;;
10882;SDS011;5494;51.796;10.952;2024-02-21T04:15:17;18.43;;;9.47;;
10882;SDS011;5494;51.796;10.952;2024-02-21T04:17:45;14.27;;;8.87;;
10882;SDS011;5494;51.796;10.952;2024-02-21T04:20:14;14.43;;;9.13;;
10882;SDS011;5494;51.796;10.952;2024-02-21T04:22:45;18.37;;;8.63;;
10882;SDS011;5494;51.796;10.952;2024-02-21T04:25:14;19.47;;;9.90;;
10882;SDS011;5494;51.796;10.952;2024-02-21T04:27:42;15.57;;;8.97;;
10882;SDS011;5494;51.796;10.952;2024-02-21T04:30:11;18.43;;;9.17;;
10882;SDS011;5494;51.796;10.952;2024-02-21T04:32:40;19.50;;;9.43;;
10882;SDS011;5494;51.796;10.952;2024-02-21T04:35:08;19.30;;;9.37;;
10882;SDS011;5494;51.796;10.952;2024-02-21T04:37:36;14.20;;;8.33;;
10882;SDS011;5494;51.796;10.952;2024-02-21T04:40:06;15.10;;;8.67;;
10882;SDS011;5494;51.796;10.952;2024-02-21T04:42:35;16.23;;;8.40;;
10882;SDS011;5494;51.796;10.952;2024-02-21T04:45:04;13.07;;;7.77;;
10882;SDS011;5494;51.796;10.952;2024-02-21T04:47:33;13.53;;;8.73;;
10882;SDS011;5494;51.796;10.952;2024-02-21T04:50:01;15.33;;;9.03;;
10882;SDS011;5494;51.796;10.952;2024-02-21T04:52:29;13.83;;;7.80;;
10882;SDS011;5494;51.796;10.952;2024-02-21T04:54:58;16.67;;;7.60;;
10882;SDS011;5494;51.796;10.952;2024-02-21T04:57:27;14.53;;;8.50;;
10882;SDS011;5494;51.796;10.952;2024-02-21T04:59:55;15.50;;;7.93;;
10882;SDS011;5494;51.796;10.952;2024-02-21T05:02:23;15.57;;;7.93;;
10882;SDS011;5494;51.796;10.952;2024-02-21T05:04:53;20.23;;;8.47;;
10882;SDS011;5494;51.796;10.952;2024-02-21T05:07:21;13.60;;;7.70;;
10882;SDS011;5494;51.796;10.952;2024-02-21T05:09:49;16.70;;;8.60;;
10882;SDS011;5494;51.796;10.952;2024-02-21T05:12:20;14.27;;;8.47;;
10882;SDS011;5494;51.796;10.952;2024-02-21T05:14:49;12.47;;;7.73;;
10882;SDS011;5494;51.796;10.952;2024-02-21T05:17:17;11.27;;;7.03;;
10882;SDS011;5494;51.796;10.952;2024-02-21T05:19:45;13.53;;;8.23;;
10882;SDS011;5494;51.796;10.952;2024-02-21T05:22:14;15.83;;;8.13;;
10882;SDS011;5494;51.796;10.952;2024-02-21T05:24:42;13.27;;;7.63;;
10882;SDS011;5494;51.796;10.952;2024-02-21T05:27:10;15.40;;;7.17;;
10882;SDS011;5494;51.796;10.952;2024-02-21T05:29:38;16.97;;;7.97;;
10882;SDS011;5494;51.796;10.952;2024-02-21T05:32:07;17.43;;;8.20;;
10882;SDS011;5494;51.796;10.952;2024-02-21T05:34:35;10.60;;;7.07;;
10882;SDS011;5494;51.796;10.952;2024-02-21T05:37:04;12.23;;;7.97;;
10882;SDS011;5494;51.796;10.952;2024-02-21T05:39:31;10.97;;;7.20;;
10882;SDS011;5494;51.796;10.952;2024-02-21T05:41:59;12.97;;;6.97;;
10882;SDS011;5494;51.796;10.952;2024-02-21T05:44:27;14.20;;;7.67;;
10882;SDS011;5494;51.796;10.952;2024-02-21T05:46:56;13.67;;;7.93;;
10882;SDS011;5494;51.796;10.952;2024-02-21T05:49:25;13.83;;;8.17;;
10882;SDS011;5494;51.796;10.952;2024-02-21T05:51:53;15.53;;;8.60;;
10882;SDS011;5494;51.796;10.952;2024-02-21T05:54:21;11.77;;;7.30;;
10882;SDS011;5494;51.796;10.952;2024-02-21T05:56:50;11.87;;;7.63;;
10882;SDS011;5494;51.796;10.952;2024-02-21T05:59:19;15.70;;;7.87;;
10882;SDS011;5494;51.796;10.952;2024-02-21T06:01:54;14.93;;;7.90;;
10882;SDS011;5494;51.796;10.952;2024-02-21T06:04:25;13.17;;;7.40;;
10882;SDS011;5494;51.796;10.952;2024-02-21T06:06:53;12.50;;;7.07;;
10882;SDS011;5494;51.796;10.952;2024-02-21T06:09:21;11.83;;;7.90;;
10882;SDS011;5494;51.796;10.952;2024-02-21T06:11:49;10.93;;;7.57;;
10882;SDS011;5494;51.796;10.952;2024-02-21T06:14:19;12.50;;;7.73;;
10882;SDS011;5494;51.796;10.952;2024-02-21T06:16:47;13.07;;;7.63;;
10882;SDS011;5494;51.796;10.952;2024-02-21T06:19:15;11.37;;;6.70;;
10882;SDS011;5494;51.796;10.952;2024-02-21T06:21:44;14.40;;;7.80;;
10882;SDS011;5494;51.796;10.952;2024-02-21T06:24:12;12.50;;;7.70;;
10882;SDS011;5494;51.796;10.952;2024-02-21T06:26:40;14.43;;;7.10;;
10882;SDS011;5494;51.796;10.952;2024-02-21T06:29:08;15.00;;;7.70;;
10882;SDS011;5494;51.796;10.952;2024-02-21T06:31:36;11.23;;;7.23;;
10882;SDS011;5494;51.796;10.952;2024-02-21T06:34:04;11.80;;;6.83;;
10882;SDS011;5494;51.796;10.952;2024-02-21T06:36:33;14.47;;;7.87;;
10882;SDS011;5494;51.796;10.952;2024-02-21T06:39:02;11.47;;;7.27;;
10882;SDS011;5494;51.796;10.952;2024-02-21T06:41:33;12.77;;;6.50;;
10882;SDS011;5494;51.796;10.952;2024-02-21T06:44:01;13.57;;;7.33;;
10882;SDS011;5494;51.796;10.952;2024-02-21T06:46:30;14.23;;;6.77;;
10882;SDS011;5494;51.796;10.952;2024-02-21T06:49:01;14.20;;;7.37;;
10882;SDS011;5494;51.796;10.952;2024-02-21T06:51:30;13.83;;;6.70;;
10882;SDS011;5494;51.796;10.952;2024-02-21T06:53:59;15.97;;;6.87;;
10882;SDS011;5494;51.796;10.952;2024-02-21T06:56:30;14.40;;;7.03;;
10882;SDS011;5494;51.796;10.952;2024-02-21T06:58:58;12.10;;;6.93;;
10882;SDS011;5494;51.796;10.952;2024-02-21T07:01:26;12.50;;;7.10;;
10882;SDS011;5494;51.796;10.952;2024-02-21T07:03:56;11.07;;;7.00;;
10882;SDS011;5494;51.796;10.952;2024-02-21T07:06:24;13.40;;;6.60;;
10882;SDS011;5494;51.796;10.952;2024-02-21T07:08:52;13.50;;;6.30;;
10882;SDS011;5494;51.796;10.952;2024-02-21T07:11:20;11.13;;;6.70;;
10882;SDS011;5494;51.796;10.952;2024-02-21T07:13:49;13.73;;;6.50;;
10882;SDS011;5494;51.796;10.952;2024-02-21T07:16:18;10.03;;;6.33;;
10882;SDS011;5494;51.796;10.952;2024-02-21T07:18:46;15.43;;;6.20;;
10882;SDS011;5494;51.796;10.952;2024-02-21T07:21:14;10.47;;;6.77;;
10882;SDS011;5494;51.796;10.952;2024-02-21T07:23:42;13.00;;;6.70;;
10882;SDS011;5494;51.796;10.952;2024-02-21T07:26:10;13.43;;;6.80;;
10882;SDS011;5494;51.796;10.952;2024-02-21T07:28:38;9.63;;;6.40;;
10882;SDS011;5494;51.796;10.952;2024-02-21T07:31:08;13.50;;;6.87;;
10882;SDS011;5494;51.796;10.952;2024-02-21T07:33:36;12.37;;;7.43;;
10882;SDS011;5494;51.796;10.952;2024-02-21T07:36:05;12.43;;;7.03;;
10882;SDS011;5494;51.796;10.952;2024-02-21T07:38:35;11.93;;;6.83;;
10882;SDS011;5494;51.796;10.952;2024-02-21T07:41:03;14.33;;;6.90;;
10882;SDS011;5494;51.796;10.952;2024-02-21T07:43:31;13.47;;;7.30;;
10882;SDS011;5494;51.796;10.952;2024-02-21T07:46:00;15.03;;;7.47;;
10882;SDS011;5494;51.796;10.952;2024-02-21T07:48:29;9.93;;;6.93;;
10882;SDS011;5494;51.796;10.952;2024-02-21T07:51:00;13.13;;;7.10;;
10882;SDS011;5494;51.796;10.952;2024-02-21T07:53:28;11.77;;;7.00;;
10882;SDS011;5494;51.796;10.952;2024-02-21T07:55:57;11.93;;;6.83;;
10882;SDS011;5494;51.796;10.952;2024-02-21T07:58:25;12.90;;;7.33;;
10882;SDS011;5494;51.796;10.952;2024-02-21T08:00:53;14.17;;;7.40;;
10882;SDS011;5494;51.796;10.952;2024-02-21T08:03:22;11.33;;;6.97;;
10882;SDS011;5494;51.796;10.952;2024-02-21T08:05:53;12.47;;;6.87;;
10882;SDS011;5494;51.796;10.952;2024-02-21T08:08:22;11.83;;;7.13;;
10882;SDS011;5494;51.796;10.952;2024-02-21T08:10:51;14.50;;;7.17;;
10882;SDS011;5494;51.796;10.952;2024-02-21T08:13:20;16.87;;;7.17;;
10882;SDS011;5494;51.796;10.952;2024-02-21T08:15:48;14.87;;;7.50;;
10882;SDS011;5494;51.796;10.952;2024-02-21T08:18:16;10.83;;;6.77;;
10882;SDS011;5494;51.796;10.952;2024-02-21T08:20:45;15.47;;;11.03;;
10882;SDS011;5494;51.796;10.952;2024-02-21T08:23:15;12.83;;;6.73;;
10882;SDS011;5494;51.796;10.952;2024-02-21T08:25:43;13.20;;;7.50;;
10882;SDS011;5494;51.796;10.952;2024-02-21T08:28:11;8.27;;;5.77;;
10882;SDS011;5494;51.796;10.952;2024-02-21T08:30:41;10.30;;;7.03;;
10882;SDS011;5494;51.796;10.952;2024-02-21T08:33:14;8.67;;;6.03;;
10882;SDS011;5494;51.796;10.952;2024-02-21T08:35:43;13.37;;;6.73;;
10882;SDS011;5494;51.796;10.952;2024-02-21T08:38:11;8.60;;;5.87;;
10882;SDS011;5494;51.796;10.952;2024-02-21T08:40:41;9.93;;;5.97;;
10882;SDS011;5494;51.796;10.952;2024-02-21T08:43:09;7.63;;;4.90;;
10882;SDS011;5494;51.796;10.952;2024-02-21T08:45:37;12.90;;;5.90;;
10882;SDS011;5494;51.796;10.952;2024-02-21T08:48:05;8.60;;;5.80;;
10882;SDS011;5494;51.796;10.952;2024-02-21T08:50:34;9.33;;;6.20;;
10882;SDS011;5494;51.796;10.952;2024-02-21T08:53:03;10.63;;;5.30;;
10882;SDS011;5494;51.796;10.952;2024-02-21T08:55:33;11.87;;;5.97;;
10882;SDS011;5494;51.796;10.952;2024-02-21T08:58:02;21.23;;;19.13;;
10882;SDS011;5494;51.796;10.952;2024-02-21T09:00:31;9.93;;;6.83;;
10882;SDS011;5494;51.796;10.952;2024-02-21T09:02:59;6.67;;;5.47;;
10882;SDS011;5494;51.796;10.952;2024-02-21T09:05:27;9.80;;;5.47;;
10882;SDS011;5494;51.796;10.952;2024-02-21T09:07:56;9.27;;;5.20;;
10882;SDS011;5494;51.796;10.952;2024-02-21T09:10:24;8.67;;;4.83;;
10882;SDS011;5494;51.796;10.952;2024-02-21T09:12:53;10.27;;;6.63;;
10882;SDS011;5494;51.796;10.952;2024-02-21T09:15:22;11.83;;;5.03;;
10882;SDS011;5494;51.796;10.952;2024-02-21T09:17:51;9.77;;;5.27;;
10882;SDS011;5494;51.796;10.952;2024-02-21T09:20:19;9.60;;;5.20;;
10882;SDS011;5494;51.796;10.952;2024-02-21T09:22:47;8.43;;;5.10;;
10882;SDS011;5494;51.796;10.952;2024-02-21T09:25:16;10.00;;;5.37;;
10882;SDS011;5494;51.796;10.952;2024-02-21T09:27:45;8.70;;;5.23;;
10882;SDS011;5494;51.796;10.952;2024-02-21T09:30:15;10.10;;;5.17;;
10882;SDS011;5494;51.796;10.952;2024-02-21T09:32:43;7.93;;;4.80;;
10882;SDS011;5494;51.796;10.952;2024-02-21T09:35:16;10.17;;;5.37;;
10882;SDS011;5494;51.796;10.952;2024-02-21T09:37:44;9.37;;;4.70;;
10882;SDS011;5494;51.796;10.952;2024-02-21T09:40:12;7.77;;;4.80;;
10882;SDS011;5494;51.796;10.952;2024-02-21T09:42:43;8.67;;;4.77;;
10882;SDS011;5494;51.796;10.952;2024-02-21T09:45:18;11.73;;;5.53;;
10882;SDS011;5494;51.796;10.952;2024-02-21T09:47:50;9.30;;;5.20;;
10882;SDS011;5494;51.796;10.952;2024-02-21T09:50:43;11.93;;;4.90;;
10882;SDS011;5494;51.796;10.952;2024-02-21T09:53:13;9.83;;;5.10;;
10882;SDS011;5494;51.796;10.952;2024-02-21T09:55:43;8.83;;;4.93;;
10882;SDS011;5494;51.796;10.952;2024-02-21T09:58:12;8.13;;;4.70;;
10882;SDS011;5494;51.796;10.952;2024-02-21T10:00:43;9.67;;;4.80;;
10882;SDS011;5494;51.796;10.952;2024-02-21T10:03:11;6.80;;;4.90;;
10882;SDS011;5494;51.796;10.952;2024-02-21T10:05:46;10.43;;;4.60;;
10882;SDS011;5494;51.796;10.952;2024-02-21T10:08:17;7.90;;;4.60;;
10882;SDS011;5494;51.796;10.952;2024-02-21T10:10:47;9.77;;;4.53;;
10882;SDS011;5494;51.796;10.952;2024-02-21T10:13:23;8.83;;;4.77;;
10882;SDS011;5494;51.796;10.952;2024-02-21T10:16:04;8.23;;;4.60;;
10882;SDS011;5494;51.796;10.952;2024-02-21T10:18:34;9.13;;;4.90;;
10882;SDS011;5494;51.796;10.952;2024-02-21T10:21:03;9.23;;;4.80;;
10882;SDS011;5494;51.796;10.952;2024-02-21T10:23:42;9.37;;;4.83;;
10882;SDS011;5494;51.796;10.952;2024-02-21T10:26:12;8.90;;;4.67;;
10882;SDS011;5494;51.796;10.952;2024-02-21T10:28:40;7.93;;;4.10;;
10882;SDS011;5494;51.796;10.952;2024-02-21T10:31:20;6.67;;;4.20;;
10882;SDS011;5494;51.796;10.952;2024-02-21T10:33:53;7.33;;;3.90;;
10882;SDS011;5494;51.796;10.952;2024-02-21T10:36:23;7.33;;;4.13;;
10882;SDS011;5494;51.796;10.952;2024-02-21T10:38:52;10.87;;;4.07;;
10882;SDS011;5494;51.796;10.952;2024-02-21T10:41:22;6.63;;;4.27;;
10882;SDS011;5494;51.796;10.952;2024-02-21T10:43:51;9.20;;;4.23;;
10882;SDS011;5494;51.796;10.952;2024-02-21T10:46:23;9.77;;;4.07;;
10882;SDS011;5494;51.796;10.952;2024-02-21T10:48:55;8.30;;;3.67;;
10882;SDS011;5494;51.796;10.952;2024-02-21T10:51:33;5.73;;;3.60;;
10882;SDS011;5494;51.796;10.952;2024-02-21T10:54:13;7.17;;;3.93;;
10882;SDS011;5494;51.796;10.952;2024-02-21T10:56:59;5.43;;;3.80;;
10882;SDS011;5494;51.796;10.952;2024-02-21T10:59:32;8.50;;;3.50;;
10882;SDS011;5494;51.796;10.952;2024-02-21T11:02:03;5.70;;;4.13;;
10882;SDS011;5494;51.796;10.952;2024-02-21T11:04:32;9.00;;;5.20;;
10882;SDS011;5494;51.796;10.952;2024-02-21T11:07:03;7.63;;;3.30;;
10882;SDS011;5494;51.796;10.952;2024-02-21T11:09:36;6.47;;;3.60;;
10882;SDS011;5494;51.796;10.952;2024-02-21T11:12:05;5.60;;;3.20;;
10882;SDS011;5494;51.796;10.952;2024-02-21T11:14:37;5.97;;;3.37;;
10882;SDS011;5494;51.796;10.952;2024-02-21T11:17:15;8.07;;;3.80;;
10882;SDS011;5494;51.796;10.952;2024-02-21T11:19:44;7.63;;;3.63;;
10882;SDS011;5494;51.796;10.952;2024-02-21T11:22:16;5.73;;;3.60;;
10882;SDS011;5494;51.796;10.952;2024-02-21T11:24:46;7.97;;;3.67;;
10882;SDS011;5494;51.796;10.952;2024-02-21T11:27:15;7.03;;;3.30;;
10882;SDS011;5494;51.796;10.952;2024-02-21T11:29:47;7.00;;;3.87;;
10882;SDS011;5494;51.796;10.952;2024-02-21T11:32:20;8.70;;;3.70;;
10882;SDS011;5494;51.796;10.952;2024-02-21T11:34:55;7.30;;;3.40;;
10882;SDS011;5494;51.796;10.952;2024-02-21T11:37:29;6.97;;;3.63;;
10882;SDS011;5494;51.796;10.952;2024-02-21T11:40:00;12.90;;;4.40;;
10882;SDS011;5494;51.796;10.952;2024-02-21T11:42:29;5.93;;;3.43;;
10882;SDS011;5494;51.796;10.952;2024-02-21T11:44:59;5.87;;;3.40;;
10882;SDS011;5494;51.796;10.952;2024-02-21T11:47:30;6.93;;;3.27;;
10882;SDS011;5494;51.796;10.952;2024-02-21T11:49:59;6.07;;;3.30;;
10882;SDS011;5494;51.796;10.952;2024-02-21T11:52:28;5.47;;;2.80;;
10882;SDS011;5494;51.796;10.952;2024-02-21T11:54:56;3.97;;;2.70;;
10882;SDS011;5494;51.796;10.952;2024-02-21T11:57:32;4.97;;;3.03;;
10882;SDS011;5494;51.796;10.952;2024-02-21T12:00:10;5.30;;;3.27;;
10882;SDS011;5494;51.796;10.952;2024-02-21T12:02:42;7.07;;;3.27;;
10882;SDS011;5494;51.796;10.952;2024-02-21T12:05:11;6.63;;;3.27;;
10882;SDS011;5494;51.796;10.952;2024-02-21T12:07:40;6.37;;;3.10;;
10882;SDS011;5494;51.796;10.952;2024-02-21T12:10:08;9.90;;;3.07;;
10882;SDS011;5494;51.796;10.952;2024-02-21T12:12:38;8.60;;;2.87;;
10882;SDS011;5494;51.796;10.952;2024-02-21T12:15:07;4.23;;;2.83;;
10882;SDS011;5494;51.796;10.952;2024-02-21T12:17:35;7.03;;;2.80;;
10882;SDS011;5494;51.796;10.952;2024-02-21T12:20:06;5.77;;;3.20;;
10882;SDS011;5494;51.796;10.952;2024-02-21T12:22:36;5.20;;;2.67;;
10882;SDS011;5494;51.796;10.952;2024-02-21T12:25:07;6.37;;;3.03;;
10882;SDS011;5494;51.796;10.952;2024-02-21T12:27:45;4.70;;;3.00;;
10882;SDS011;5494;51.796;10.952;2024-02-21T12:30:13;3.73;;;2.23;;
10882;SDS011;5494;51.796;10.952;2024-02-21T12:32:41;5.13;;;2.67;;
10882;SDS011;5494;51.796;10.952;2024-02-21T12:35:11;7.10;;;3.57;;
10882;SDS011;5494;51.796;10.952;2024-02-21T12:37:39;7.43;;;3.50;;
10882;SDS011;5494;51.796;10.952;2024-02-21T12:40:09;17.13;;;8.30;;
10882;SDS011;5494;51.796;10.952;2024-02-21T12:42:40;6.43;;;4.37;;
10882;SDS011;5494;51.796;10.952;2024-02-21T12:45:08;12.83;;;7.50;;
10882;SDS011;5494;51.796;10.952;2024-02-21T12:47:37;6.27;;;3.10;;
10882;SDS011;5494;51.796;10.952;2024-02-21T12:50:06;6.27;;;2.90;;
10882;SDS011;5494;51.796;10.952;2024-02-21T12:52:37;5.27;;;2.37;;
10882;SDS011;5494;51.796;10.952;2024-02-21T12:55:05;8.47;;;3.27;;
10882;SDS011;5494;51.796;10.952;2024-02-21T12:57:36;6.60;;;2.97;;
10882;SDS011;5494;51.796;10.952;2024-02-21T13:00:04;7.60;;;2.50;;
10882;SDS011;5494;51.796;10.952;2024-02-21T13:02:35;6.50;;;2.77;;
10882;SDS011;5494;51.796;10.952;2024-02-21T13:05:05;6.33;;;2.63;;
10882;SDS011;5494;51.796;10.952;2024-02-21T13:07:34;7.17;;;2.80;;
10882;SDS011;5494;51.796;10.952;2024-02-21T13:10:04;7.03;;;2.47;;
10882;SDS011;5494;51.796;10.952;2024-02-21T13:12:35;6.30;;;2.50;;
10882;SDS011;5494;51.796;10.952;2024-02-21T13:15:03;4.77;;;2.60;;
10882;SDS011;5494;51.796;10.952;2024-02-21T13:17:32;7.27;;;3.00;;
10882;SDS011;5494;51.796;10.952;2024-02-21T13:20:01;4.90;;;2.87;;
10882;SDS011;5494;51.796;10.952;2024-02-21T13:22:29;7.03;;;2.50;;
10882;SDS011;5494;51.796;10.952;2024-02-21T13:24:59;5.30;;;2.30;;
10882;SDS011;5494;51.796;10.952;2024-02-21T13:27:27;6.80;;;2.80;;
10882;SDS011;5494;51.796;10.952;2024-02-21T13:29:55;4.20;;;2.47;;
10882;SDS011;5494;51.796;10.952;2024-02-21T13:32:25;7.40;;;3.67;;
10882;SDS011;5494;51.796;10.952;2024-02-21T13:34:53;5.20;;;2.60;;
10882;SDS011;5494;51.796;10.952;2024-02-21T13:37:21;4.00;;;2.17;;
10882;SDS011;5494;51.796;10.952;2024-02-21T13:39:49;4.67;;;2.70;;
10882;SDS011;5494;51.796;10.952;2024-02-21T13:42:18;6.67;;;3.10;;
10882;SDS011;5494;51.796;10.952;2024-02-21T13:44:46;6.57;;;2.60;;
10882;SDS011;5494;51.796;10.952;2024-02-21T13:47:15;6.20;;;3.17;;
10882;SDS011;5494;51.796;10.952;2024-02-21T13:49:43;4.67;;;2.00;;
10882;SDS011;5494;51.796;10.952;2024-02-21T13:52:11;4.00;;;2.27;;
10882;SDS011;5494;51.796;10.952;2024-02-21T13:54:40;4.27;;;2.30;;
10882;SDS011;5494;51.796;10.952;2024-02-21T13:57:09;4.47;;;2.00;;
10882;SDS011;5494;51.796;10.952;2024-02-21T13:59:38;5.63;;;2.37;;
10882;SDS011;5494;51.796;10.952;2024-02-21T14:02:07;6.43;;;2.60;;
10882;SDS011;5494;51.796;10.952;2024-02-21T14:04:35;5.17;;;2.57;;
10882;SDS011;5494;51.796;10.952;2024-02-21T14:07:04;4.33;;;2.13;;
10882;SDS011;5494;51.796;10.952;2024-02-21T14:09:32;9.77;;;2.90;;
10882;SDS011;5494;51.796;10.952;2024-02-21T14:12:00;5.03;;;2.80;;
10882;SDS011;5494;51.796;10.952;2024-02-21T14:14:29;4.67;;;2.33;;
10882;SDS011;5494;51.796;10.952;2024-02-21T14:16:58;5.67;;;2.80;;
10882;SDS011;5494;51.796;10.952;2024-02-21T14:19:27;6.53;;;2.80;;
10882;SDS011;5494;51.796;10.952;2024-02-21T14:21:55;4.03;;;2.23;;
10882;SDS011;5494;51.796;10.952;2024-02-21T14:24:23;5.77;;;2.33;;
10882;SDS011;5494;51.796;10.952;2024-02-21T14:26:51;6.10;;;3.00;;
10882;SDS011;5494;51.796;10.952;2024-02-21T14:29:19;5.73;;;2.63;;
10882;SDS011;5494;51.796;10.952;2024-02-21T14:31:51;5.47;;;2.70;;
10882;SDS011;5494;51.796;10.952;2024-02-21T14:34:20;3.17;;;2.30;;
10882;SDS011;5494;51.796;10.952;2024-02-21T14:36:48;6.30;;;2.93;;
10882;SDS011;5494;51.796;10.952;2024-02-21T14:39:16;7.57;;;3.40;;
10882;SDS011;5494;51.796;10.952;2024-02-21T14:41:44;9.73;;;2.70;;
10882;SDS011;5494;51.796;10.952;2024-02-21T14:44:12;7.83;;;2.83;;
10882;SDS011;5494;51.796;10.952;2024-02-21T14:46:40;8.20;;;3.27;;
10882;SDS011;5494;51.796;10.952;2024-02-21T14:49:09;8.63;;;2.80;;
10882;SDS011;5494;51.796;10.952;2024-02-21T14:51:39;8.13;;;2.97;;
10882;SDS011;5494;51.796;10.952;2024-02-21T14:54:07;9.90;;;3.17;;